Time;durP1;ratioP1;P1;durP2;ratioP2;P2;SDS_P1;SDS_P2;PMS_P1;PMS_P2;Temp;Humidity;BMP_temperature;BMP_pressure;BME280_temperature;BME280_humidity;BME280_pressure;Samples;Min_cycle;Max_cycle;Signal;HPM_P1;HPM_P2
2022/11/06 00:00:36;;;;;;;9.00;7.73;;;;;;;8.81;85.66;96050.22;5066295;28;20189;-79
2022/11/06 00:03:03;;;;;;;8.33;7.43;;;;;;;8.79;85.46;96044.41;5067349;28;20189;-80
2022/11/06 00:08:25;;;;;;;8.47;7.63;;;;;;;8.81;84.93;96045.06;5052836;28;20663;-79
2022/11/06 00:10:51;;;;;;;8.80;7.87;;;;;;;8.67;85.00;96041.28;5054041;28;20193;-80
2022/11/06 00:13:18;;;;;;;8.80;7.77;;;;;;;8.68;85.00;96042.09;5052548;28;20205;-80
2022/11/06 00:15:44;;;;;;;8.70;7.20;;;;;;;8.69;85.21;96043.72;5053573;28;20214;-79
2022/11/06 00:18:11;;;;;;;8.93;7.53;;;;;;;8.69;85.63;96047.09;5053032;28;20214;-81
2022/11/06 00:20:37;;;;;;;8.67;7.37;;;;;;;8.66;84.97;96047.38;5053104;28;20204;-79
2022/11/06 00:23:04;;;;;;;8.30;7.43;;;;;;;8.60;84.72;96048.81;5052526;28;20201;-80
2022/11/06 00:25:31;;;;;;;11.47;7.93;;;;;;;8.56;84.96;96042.38;5052515;28;20213;-80
2022/11/06 00:27:58;;;;;;;8.03;7.13;;;;;;;8.55;85.08;96035.63;5065789;28;20189;-78
2022/11/06 00:30:25;;;;;;;8.07;7.27;;;;;;;8.56;84.93;96029.56;5063606;28;20193;-81
2022/11/06 00:32:51;;;;;;;9.20;7.10;;;;;;;8.54;84.92;96031.47;5066134;28;20189;-80
2022/11/06 00:35:18;;;;;;;8.27;7.30;;;;;;;8.53;84.95;96027.28;5066956;28;20209;-81
2022/11/06 00:37:44;;;;;;;8.10;7.30;;;;;;;8.58;85.21;96025.06;5065321;28;20217;-80
2022/11/06 00:40:12;;;;;;;8.33;7.37;;;;;;;8.55;84.64;96024.56;5066219;28;20197;-80
2022/11/06 00:42:40;;;;;;;7.60;6.80;;;;;;;8.58;85.12;96026.84;5062641;28;20718;-80
2022/11/06 00:45:08;;;;;;;7.87;7.07;;;;;;;8.59;84.51;96033.56;5053421;28;20624;-81
2022/11/06 00:47:34;;;;;;;8.00;7.20;;;;;;;8.59;84.83;96028.44;5051933;28;20189;-80
2022/11/06 00:50:01;;;;;;;7.37;6.40;;;;;;;8.58;84.39;96029.41;5053074;28;20196;-79
2022/11/06 00:52:29;;;;;;;8.10;6.93;;;;;;;8.59;84.66;96025.88;5052650;28;20205;-80
2022/11/06 00:54:55;;;;;;;8.10;7.10;;;;;;;8.60;84.39;96030.84;5056739;28;20228;-80
2022/11/06 00:57:22;;;;;;;8.27;6.83;;;;;;;8.56;83.93;96031.31;5052782;28;20224;-80
2022/11/06 00:59:49;;;;;;;7.47;6.63;;;;;;;8.50;84.06;96034.47;5053784;28;20604;-81
2022/11/06 01:02:18;;;;;;;7.67;6.87;;;;;;;8.49;84.52;96030.31;5052072;28;20550;-79
2022/11/06 01:04:45;;;;;;;7.53;6.73;;;;;;;8.42;84.47;96029.31;5054128;28;20275;-80
2022/11/06 01:07:12;;;;;;;7.90;6.30;;;;;;;8.36;84.36;96028.16;5051830;28;20190;-81
2022/11/06 01:09:39;;;;;;;7.67;6.63;;;;;;;8.34;84.67;96031.81;5055516;28;20200;-80
2022/11/06 01:12:05;;;;;;;8.40;7.20;;;;;;;8.34;84.99;96024.13;5066188;28;20223;-81
2022/11/06 01:14:32;;;;;;;7.27;6.40;;;;;;;8.36;84.31;96028.16;5063917;28;20215;-80
2022/11/06 01:17:00;;;;;;;7.77;6.97;;;;;;;8.39;84.47;96025.28;5065238;28;20213;-80
2022/11/06 01:19:26;;;;;;;7.80;6.90;;;;;;;8.38;84.12;96013.41;5066771;28;20189;-80
2022/11/06 01:21:53;;;;;;;7.93;6.87;;;;;;;8.28;83.86;96015.25;5064821;28;20189;-80
2022/11/06 01:24:22;;;;;;;7.00;6.30;;;;;;;8.30;84.74;96003.88;5066183;28;20247;-80
2022/11/06 01:26:49;;;;;;;7.57;6.77;;;;;;;8.32;84.18;96009.69;5059195;28;20201;-80
2022/11/06 01:29:18;;;;;;;8.73;6.57;;;;;;;8.29;84.27;96004.03;5066048;28;20189;-80
2022/11/06 01:31:45;;;;;;;7.33;6.47;;;;;;;8.22;83.83;96006.41;5064421;28;20204;-80
2022/11/06 01:34:13;;;;;;;7.53;6.80;;;;;;;8.20;84.09;95999.81;5066629;28;20209;-81
2022/11/06 01:36:40;;;;;;;6.37;5.73;;;;;;;8.19;83.72;95999.00;5060495;28;20198;-81
2022/11/06 01:39:08;;;;;;;6.93;6.23;;;;;;;8.18;83.38;95996.59;5064567;28;20197;-82
2022/11/06 01:41:37;;;;;;;7.43;6.37;;;;;;;8.16;83.60;95993.38;5064303;28;20712;-79
2022/11/06 01:44:07;;;;;;;7.77;6.10;;;;;;;8.12;83.17;95987.72;5065313;28;20216;-79
2022/11/06 01:46:35;;;;;;;7.37;6.30;;;;;;;8.12;83.86;95984.38;5065423;28;20189;-79
2022/11/06 01:49:05;;;;;;;7.53;6.73;;;;;;;8.12;83.90;95985.16;5064494;28;20190;-79
2022/11/06 01:51:37;;;;;;;6.63;5.80;;;;;;;8.12;83.43;95987.72;5059536;28;20268;-81
2022/11/06 01:54:06;;;;;;;7.33;6.63;;;;;;;8.12;82.99;95987.72;5065068;28;20428;-80
2022/11/06 01:56:33;;;;;;;7.13;6.43;;;;;;;8.12;82.75;95981.81;5051724;28;20197;-81
2022/11/06 01:58:59;;;;;;;7.10;6.13;;;;;;;8.00;82.32;95973.56;5052936;28;20224;-79
2022/11/06 02:01:26;;;;;;;8.33;6.37;;;;;;;7.93;82.66;95978.47;5051142;28;20205;-79
2022/11/06 02:03:57;;;;;;;7.27;6.13;;;;;;;7.85;83.00;95988.69;5052578;28;20205;-80
2022/11/06 02:06:24;;;;;;;6.43;5.73;;;;;;;7.81;83.37;95991.69;5051828;28;20194;-81
2022/11/06 02:08:52;;;;;;;7.13;6.37;;;;;;;7.82;83.51;95986.44;5052771;28;20194;-80
2022/11/06 02:11:19;;;;;;;6.57;5.87;;;;;;;7.87;83.75;95986.78;5050764;28;20218;-80
2022/11/06 02:13:58;;;;;;;9.03;6.60;;;;;;;7.92;83.82;95981.19;5052002;28;20213;-79
2022/11/06 02:16:30;;;;;;;6.20;5.60;;;;;;;7.95;83.61;95986.03;5051463;28;20185;-79
2022/11/06 02:19:11;;;;;;;7.23;6.40;;;;;;;7.95;83.49;95981.69;5055182;28;20213;-80
2022/11/06 02:21:58;;;;;;;8.03;6.63;;;;;;;7.92;83.06;95974.31;5061297;28;20322;-78
2022/11/06 02:24:51;;;;;;;6.37;5.77;;;;;;;7.88;82.97;95973.03;5064589;28;20764;-80
2022/11/06 02:27:22;;;;;;;6.13;5.53;;;;;;;7.92;83.41;95976.06;5062517;28;20549;-80
2022/11/06 02:29:56;;;;;;;6.17;5.47;;;;;;;7.87;83.24;95968.03;5068164;28;20616;-80
2022/11/06 02:32:28;;;;;;;6.90;5.87;;;;;;;7.86;83.55;95971.56;5068906;28;20197;-79
2022/11/06 02:34:58;;;;;;;6.77;5.37;;;;;;;7.86;83.75;95969.00;5067687;28;20225;-80
2022/11/06 02:37:30;;;;;;;7.73;6.17;;;;;;;7.86;83.85;95963.88;5069293;28;20299;-80
2022/11/06 02:40:01;;;;;;;6.67;5.67;;;;;;;7.85;84.04;95965.63;5067462;28;20204;-80
2022/11/06 02:42:31;;;;;;;7.50;6.10;;;;;;;7.87;84.19;95971.41;5058650;28;20189;-81
2022/11/06 02:44:59;;;;;;;6.67;6.03;;;;;;;7.87;84.12;95965.47;5055868;28;20228;-81
2022/11/06 02:47:29;;;;;;;7.10;5.57;;;;;;;7.83;83.75;95956.47;5054562;28;20197;-80
2022/11/06 02:50:01;;;;;;;6.43;5.73;;;;;;;7.75;84.02;95949.53;5056271;28;20201;-78
2022/11/06 02:52:34;;;;;;;6.47;5.70;;;;;;;7.62;84.44;95944.78;5054772;28;20562;-80
2022/11/06 02:55:06;;;;;;;6.20;5.60;;;;;;;7.66;84.67;95942.75;5066770;28;20228;-80
2022/11/06 02:57:37;;;;;;;6.27;5.67;;;;;;;7.61;84.27;95943.19;5068327;28;20220;-80
2022/11/06 03:00:07;;;;;;;6.43;5.60;;;;;;;7.60;84.28;95938.22;5055889;28;20189;-78
2022/11/06 03:02:39;;;;;;;5.67;5.07;;;;;;;7.66;83.85;95945.31;5054880;28;20193;-79
2022/11/06 03:05:11;;;;;;;6.77;6.03;;;;;;;7.57;84.33;95952.13;5067954;28;20245;-80
2022/11/06 03:07:43;;;;;;;6.13;5.53;;;;;;;7.60;84.81;95941.56;5068971;28;20193;-80
2022/11/06 03:10:10;;;;;;;6.47;5.80;;;;;;;7.65;84.64;95936.00;5068192;28;20221;-80
2022/11/06 03:12:49;;;;;;;6.13;5.53;;;;;;;7.68;83.85;95942.59;5068388;28;20852;-80
2022/11/06 03:15:22;;;;;;;6.33;5.73;;;;;;;7.63;83.89;95943.03;5054611;28;20209;-79
2022/11/06 03:17:56;;;;;;;5.87;5.27;;;;;;;7.62;83.40;95936.31;5054227;28;20600;-80
2022/11/06 03:20:31;;;;;;;6.97;5.87;;;;;;;7.62;82.73;95939.66;5056834;28;20276;-80
2022/11/06 03:23:03;;;;;;;6.87;5.77;;;;;;;7.56;82.61;95932.56;5066758;28;20196;-80
2022/11/06 03:25:39;;;;;;;7.10;5.50;;;;;;;7.57;82.14;95934.19;5068695;28;20216;-80
2022/11/06 03:28:11;;;;;;;8.83;5.87;;;;;;;7.53;82.20;95938.00;5067183;28;20197;-80
2022/11/06 03:30:42;;;;;;;8.37;6.23;;;;;;;7.53;82.23;95945.69;5065642;28;20220;-80
2022/11/06 03:33:13;;;;;;;12.93;6.90;;;;;;;7.53;82.30;95950.00;5067305;28;20204;-79
2022/11/06 03:35:44;;;;;;;8.83;6.20;;;;;;;7.52;82.07;95949.19;5068560;28;20214;-80
2022/11/06 03:38:15;;;;;;;9.43;7.33;;;;;;;7.42;81.83;95940.00;5054110;28;20217;-79
2022/11/06 03:40:48;;;;;;;10.50;7.10;;;;;;;7.36;81.96;95951.63;5053339;28;20197;-80
2022/11/06 03:43:19;;;;;;;9.43;6.90;;;;;;;7.22;81.17;95949.59;5057056;28;20189;-80
2022/11/06 03:45:47;;;;;;;7.30;5.97;;;;;;;7.19;81.33;95947.31;5059141;28;20221;-80
2022/11/06 03:48:19;;;;;;;7.37;6.27;;;;;;;7.17;82.14;95941.53;5050987;28;20198;-79
2022/11/06 03:50:51;;;;;;;8.17;6.27;;;;;;;7.10;82.08;95951.56;5064971;28;20196;-80
2022/11/06 03:53:23;;;;;;;7.63;6.47;;;;;;;7.11;81.85;95949.81;5056005;28;20201;-79
2022/11/06 03:55:55;;;;;;;6.90;5.67;;;;;;;7.05;81.50;95945.28;5060165;28;20217;-80
2022/11/06 03:58:25;;;;;;;6.97;6.27;;;;;;;6.93;81.76;95950.59;5053504;28;20209;-80
2022/11/06 04:00:54;;;;;;;6.83;5.83;;;;;;;6.84;82.26;95948.09;5054386;28;20194;-80
2022/11/06 04:03:25;;;;;;;7.37;5.60;;;;;;;6.88;82.02;95939.19;5053403;28;20208;-80
2022/11/06 04:05:58;;;;;;;6.80;5.77;;;;;;;6.90;82.25;95939.84;5054551;28;20222;-80
2022/11/06 04:14:13;;;;;;;7.97;5.40;;;;;;;6.85;82.06;95927.50;5040486;28;20696;-80
2022/11/06 04:16:45;;;;;;;6.57;5.40;;;;;;;6.79;82.55;95927.25;5062221;28;20200;-79
2022/11/06 04:19:15;;;;;;;7.50;5.40;;;;;;;6.85;83.08;95934.38;5066362;28;20213;-80
2022/11/06 04:21:52;;;;;;;5.93;5.13;;;;;;;6.91;82.83;95931.22;5066959;28;20226;-78
2022/11/06 04:27:43;;;;;;;5.97;4.83;;;;;;;7.00;82.76;95925.22;5040822;28;20276;-80
2022/11/06 04:30:14;;;;;;;5.87;5.10;;;;;;;7.06;82.61;95927.22;5065935;28;20193;-80
2022/11/06 04:32:56;;;;;;;4.80;4.40;;;;;;;7.09;81.82;95923.56;5067379;28;20223;-79
2022/11/06 04:35:31;;;;;;;4.70;4.23;;;;;;;7.12;81.59;95921.47;5052842;28;20205;-80
2022/11/06 04:38:03;;;;;;;5.60;5.03;;;;;;;7.15;80.84;95923.75;5053825;28;20228;-80
2022/11/06 04:40:36;;;;;;;5.60;4.70;;;;;;;7.17;81.93;95918.50;5051777;28;20269;-80
2022/11/06 04:43:07;;;;;;;4.53;4.13;;;;;;;7.19;81.60;95914.03;5066086;28;20871;-80
2022/11/06 04:45:40;;;;;;;4.70;4.30;;;;;;;7.16;81.34;95911.75;5067603;28;20209;-80
2022/11/06 04:48:07;;;;;;;6.53;4.40;;;;;;;7.16;81.54;95912.56;5064359;28;20210;-80
2022/11/06 04:50:39;;;;;;;4.87;4.37;;;;;;;7.19;82.01;95917.41;5066989;28;20204;-80
2022/11/06 04:53:09;;;;;;;4.50;4.10;;;;;;;7.16;82.06;95907.44;5065233;28;20734;-80
2022/11/06 04:55:44;;;;;;;4.60;4.20;;;;;;;7.15;82.18;95908.38;5062771;28;20217;-79
2022/11/06 04:58:11;;;;;;;5.63;4.77;;;;;;;7.10;82.14;95912.38;5064789;28;20220;-80
2022/11/06 05:00:41;;;;;;;5.40;4.13;;;;;;;7.16;82.26;95911.75;5066108;28;20196;-79
2022/11/06 05:03:08;;;;;;;4.47;4.07;;;;;;;7.19;81.89;95911.47;5065377;28;20232;-80
2022/11/06 05:05:34;;;;;;;4.80;4.30;;;;;;;7.16;81.34;95909.19;5066557;28;20216;-80
2022/11/06 05:08:01;;;;;;;5.33;4.20;;;;;;;7.10;81.54;95914.94;5056059;28;20227;-81
2022/11/06 05:10:27;;;;;;;4.73;4.27;;;;;;;7.11;81.12;95909.66;5056415;28;20198;-80
2022/11/06 05:12:54;;;;;;;4.43;4.03;;;;;;;7.15;81.04;95900.72;5058102;28;20235;-79
2022/11/06 05:15:20;;;;;;;4.07;3.70;;;;;;;7.16;80.84;95906.63;5052293;28;20213;-80
2022/11/06 05:17:48;;;;;;;3.90;3.60;;;;;;;7.14;81.33;95904.22;5052358;28;20231;-79
2022/11/06 05:20:15;;;;;;;4.20;3.80;;;;;;;7.13;81.30;95905.16;5065498;28;20194;-80
2022/11/06 05:22:59;;;;;;;4.30;3.90;;;;;;;7.11;80.53;95901.97;5066673;28;20208;-78
2022/11/06 05:25:27;;;;;;;4.07;3.67;;;;;;;7.11;80.53;95891.75;5067115;28;20339;-80
2022/11/06 05:27:54;;;;;;;4.70;4.27;;;;;;;7.12;80.15;95884.88;5066210;28;20219;-79
2022/11/06 05:30:20;;;;;;;4.33;3.93;;;;;;;7.13;80.42;95865.97;5066285;28;20232;-80
2022/11/06 05:32:48;;;;;;;4.47;4.07;;;;;;;7.10;80.04;95881.63;5066125;28;20193;-79
2022/11/06 05:35:15;;;;;;;4.30;3.90;;;;;;;7.10;80.29;95882.44;5065328;28;20811;-78
2022/11/06 05:37:41;;;;;;;3.93;3.60;;;;;;;7.12;80.59;95888.19;5066885;28;20201;-80
2022/11/06 05:40:09;;;;;;;4.17;3.77;;;;;;;7.13;79.67;95889.00;5064877;28;20197;-78
2022/11/06 05:42:37;;;;;;;4.13;3.73;;;;;;;7.12;79.77;95885.63;5056684;28;20205;-80
2022/11/06 05:45:04;;;;;;;4.20;3.77;;;;;;;7.08;80.14;95891.22;5053506;28;20224;-79
2022/11/06 05:47:30;;;;;;;3.90;3.53;;;;;;;7.06;80.76;95893.94;5051670;28;20200;-80
2022/11/06 05:49:58;;;;;;;4.07;3.77;;;;;;;7.08;80.31;95878.41;5052458;28;20197;-80
2022/11/06 05:52:25;;;;;;;5.30;3.60;;;;;;;7.06;80.23;95876.00;5053408;28;20193;-80
2022/11/06 05:54:51;;;;;;;3.87;3.50;;;;;;;6.96;80.31;95882.94;5061127;28;20232;-79
2022/11/06 05:57:18;;;;;;;4.00;3.70;;;;;;;6.87;80.54;95876.97;5056660;28;20549;-79
2022/11/06 05:59:45;;;;;;;4.07;3.63;;;;;;;6.92;80.73;95874.78;5055238;28;20693;-80
2022/11/06 06:02:11;;;;;;;4.60;3.40;;;;;;;6.94;80.40;95872.84;5058526;28;20745;-80
2022/11/06 06:04:38;;;;;;;3.63;3.33;;;;;;;6.92;80.03;95877.34;5061656;28;20220;-79
2022/11/06 06:07:07;;;;;;;3.73;3.40;;;;;;;6.83;79.53;95859.47;5061016;28;20201;-79
2022/11/06 06:09:33;;;;;;;4.93;4.13;;;;;;;6.51;80.38;95868.47;5055727;28;20193;-79
2022/11/06 06:12:00;;;;;;;3.73;3.43;;;;;;;6.50;81.47;95855.81;5068369;28;20197;-80
2022/11/06 06:14:26;;;;;;;4.03;3.60;;;;;;;6.53;81.39;95858.09;5055439;28;20281;-79
2022/11/06 06:16:53;;;;;;;3.73;3.43;;;;;;;6.39;83.36;95850.88;5055376;28;20198;-80
2022/11/06 06:19:19;;;;;;;4.63;3.60;;;;;;;6.49;83.41;95854.22;5055544;28;20217;-80
2022/11/06 06:21:49;;;;;;;3.97;3.60;;;;;;;6.52;83.65;95859.84;5055086;28;20201;-79
2022/11/06 06:24:17;;;;;;;3.90;3.33;;;;;;;6.59;83.87;95850.63;5068617;28;20220;-81
2022/11/06 06:26:43;;;;;;;3.80;3.40;;;;;;;6.35;85.73;95852.94;5069511;28;20192;-81
2022/11/06 06:29:10;;;;;;;3.93;3.53;;;;;;;6.19;87.88;95842.53;5068154;28;20208;-80
2022/11/06 06:31:37;;;;;;;3.80;3.50;;;;;;;6.09;88.49;95845.16;5069347;28;20188;-80
2022/11/06 06:34:03;;;;;;;4.20;3.60;;;;;;;6.00;89.67;95840.06;5068356;28;20313;-79
2022/11/06 06:36:30;;;;;;;3.70;3.40;;;;;;;5.98;90.29;95850.44;5069492;28;20193;-80
2022/11/06 06:38:56;;;;;;;4.00;3.60;;;;;;;6.00;90.36;95845.97;5060687;28;20221;-81
2022/11/06 06:41:25;;;;;;;4.00;3.60;;;;;;;6.11;89.31;95850.13;5056899;28;20200;-79
2022/11/06 06:43:52;;;;;;;3.77;3.37;;;;;;;6.29;88.49;95845.03;5070218;28;20225;-80
2022/11/06 06:46:19;;;;;;;3.90;3.53;;;;;;;6.46;87.31;95841.69;5068185;28;20225;-79
2022/11/06 06:48:45;;;;;;;3.77;3.40;;;;;;;6.67;86.26;95844.78;5070018;28;20222;-79
2022/11/06 06:51:11;;;;;;;4.10;3.70;;;;;;;6.89;85.33;95835.88;5067893;28;20201;-79
2022/11/06 06:53:38;;;;;;;3.73;3.43;;;;;;;7.37;83.06;95839.72;5061273;28;20208;-82
2022/11/06 06:56:05;;;;;;;3.93;3.60;;;;;;;7.58;80.42;95832.50;5068763;28;20221;-78
2022/11/06 06:58:34;;;;;;;5.23;3.90;;;;;;;7.86;78.93;95841.63;5070166;28;20224;-79
2022/11/06 07:01:00;;;;;;;4.30;3.90;;;;;;;8.20;77.91;95836.47;5052300;28;20205;-80
2022/11/06 07:03:27;;;;;;;5.37;3.83;;;;;;;8.60;82.43;95827.28;5068331;28;20603;-83
2022/11/06 07:05:54;;;;;;;3.90;3.60;;;;;;;8.90;78.20;95831.81;5056127;28;20218;-83
2022/11/06 07:08:20;;;;;;;4.03;3.53;;;;;;;9.13;76.61;95826.84;5054208;28;20197;-84
2022/11/06 07:10:47;;;;;;;3.97;3.53;;;;;;;9.37;78.28;95840.63;5055305;28;20197;-84
2022/11/06 07:13:13;;;;;;;5.97;3.47;;;;;;;9.64;78.31;95843.63;5055783;28;20197;-80
2022/11/06 07:15:41;;;;;;;3.90;3.50;;;;;;;9.26;71.01;95842.56;5062103;28;20228;-80
2022/11/06 07:18:08;;;;;;;3.60;3.30;;;;;;;8.99;72.25;95841.13;5067632;28;20193;-80
2022/11/06 07:20:34;;;;;;;4.03;3.60;;;;;;;8.44;74.63;95842.66;5059268;28;20194;-81
2022/11/06 07:23:05;;;;;;;4.03;3.63;;;;;;;8.01;76.79;95846.16;5056000;28;20205;-80
2022/11/06 07:25:32;;;;;;;4.30;3.90;;;;;;;7.70;77.90;95849.22;5054454;28;20217;-80
2022/11/06 07:28:01;;;;;;;4.33;3.93;;;;;;;7.49;79.17;95864.16;5055875;28;20198;-82
2022/11/06 07:30:27;;;;;;;4.40;4.00;;;;;;;7.21;81.19;95866.84;5056622;28;20193;-79
2022/11/06 07:32:55;;;;;;;4.47;4.07;;;;;;;7.04;82.54;95874.53;5065639;28;20208;-81
2022/11/06 07:35:21;;;;;;;4.70;4.30;;;;;;;6.79;84.26;95881.19;5068865;28;20236;-81
2022/11/06 07:37:48;;;;;;;5.13;4.63;;;;;;;6.68;85.82;95868.63;5065868;28;20224;-81
2022/11/06 07:40:14;;;;;;;5.37;4.87;;;;;;;6.61;87.14;95875.25;5066971;28;20764;-80
2022/11/06 07:42:41;;;;;;;5.43;4.93;;;;;;;6.63;87.96;95869.06;5060603;28;20197;-80
2022/11/06 07:45:09;;;;;;;6.33;5.20;;;;;;;6.70;90.92;95866.72;5056990;28;20224;-79
2022/11/06 07:47:36;;;;;;;6.33;5.73;;;;;;;6.80;90.26;95870.81;5064984;28;20200;-80
2022/11/06 07:50:05;;;;;;;7.77;6.10;;;;;;;6.94;89.05;95870.28;5067516;28;20204;-81
2022/11/06 07:52:35;;;;;;;7.93;5.97;;;;;;;7.14;88.61;95870.13;5054965;28;20201;-82
2022/11/06 07:55:02;;;;;;;29.87;7.47;;;;;;;7.21;88.98;95860.91;5060736;28;20742;-83
2022/11/06 07:57:28;;;;;;;8.23;6.50;;;;;;;7.31;89.03;95853.16;5056003;28;20284;-82
2022/11/06 07:59:55;;;;;;;8.13;6.37;;;;;;;7.42;89.26;95853.69;5061632;28;20232;-82
2022/11/06 08:02:21;;;;;;;10.00;5.73;;;;;;;7.62;89.08;95849.19;5065753;28;20205;-82
2022/11/06 08:04:48;;;;;;;9.30;6.30;;;;;;;7.56;88.66;95847.22;5065163;28;20704;-85
2022/11/06 08:07:15;;;;;;;6.83;6.13;;;;;;;7.66;89.76;95836.88;5068647;28;20213;-83
2022/11/06 08:09:42;;;;;;;6.83;6.13;;;;;;;7.63;90.15;95835.41;5058035;28;20197;-83
2022/11/06 08:12:08;;;;;;;6.50;5.90;;;;;;;7.88;89.74;95821.78;5057995;28;20201;-84
2022/11/06 08:14:35;;;;;;;6.60;5.80;;;;;;;8.20;87.85;95826.22;5054638;28;20222;-82
2022/11/06 08:17:01;;;;;;;6.57;5.63;;;;;;;8.45;87.32;95806.59;5055779;28;20568;-84
2022/11/06 08:19:28;;;;;;;6.27;5.60;;;;;;;8.55;85.65;95804.66;5056982;28;20228;-85
2022/11/06 08:21:54;;;;;;;6.40;5.80;;;;;;;8.70;84.53;95802.28;5067351;28;20750;-82
2022/11/06 08:24:22;;;;;;;6.37;5.77;;;;;;;8.97;83.91;95799.41;5057356;28;20208;-83
2022/11/06 08:26:49;;;;;;;6.93;5.63;;;;;;;9.13;82.79;95796.00;5055254;28;20210;-83
2022/11/06 08:29:16;;;;;;;6.33;5.73;;;;;;;9.51;81.64;95804.78;5056144;28;20212;-83
2022/11/06 08:31:42;;;;;;;6.83;5.90;;;;;;;9.58;80.81;95799.81;5056574;28;20576;-83
2022/11/06 08:34:09;;;;;;;7.07;6.37;;;;;;;9.83;79.96;95793.59;5067221;28;20201;-83
2022/11/06 08:36:38;;;;;;;6.70;5.60;;;;;;;9.98;79.35;95799.66;5060558;28;20198;-83
2022/11/06 08:39:07;;;;;;;5.87;5.37;;;;;;;10.12;77.80;95795.56;5061037;28;20225;-83
2022/11/06 08:41:35;;;;;;;6.37;5.77;;;;;;;10.16;76.39;95786.56;5059246;28;20197;-83
2022/11/06 08:44:01;;;;;;;6.17;5.30;;;;;;;10.33;76.43;95785.53;5068553;28;20193;-84
2022/11/06 08:46:28;;;;;;;5.73;5.23;;;;;;;10.17;76.58;95785.59;5055220;28;20207;-83
2022/11/06 08:48:55;;;;;;;5.93;5.43;;;;;;;10.14;76.44;95785.13;5056061;28;20193;-84
2022/11/06 08:51:21;;;;;;;6.90;6.27;;;;;;;9.85;75.78;95796.00;5067588;28;20189;-84
2022/11/06 08:53:48;;;;;;;5.73;5.23;;;;;;;9.83;77.18;95787.66;5064727;28;20198;-83
2022/11/06 08:56:14;;;;;;;6.13;5.50;;;;;;;9.76;77.43;95779.81;5062740;28;20221;-84
2022/11/06 08:58:43;;;;;;;6.33;5.73;;;;;;;9.60;77.82;95772.97;5067771;28;20204;-83
2022/11/06 09:01:09;;;;;;;5.83;5.23;;;;;;;9.77;78.08;95763.41;5068489;28;20202;-84
2022/11/06 09:03:36;;;;;;;6.40;5.80;;;;;;;9.81;78.05;95759.56;5067527;28;20189;-84
2022/11/06 09:06:05;;;;;;;6.03;5.47;;;;;;;9.95;77.42;95755.47;5070073;28;20299;-82
2022/11/06 09:08:33;;;;;;;7.13;5.57;;;;;;;10.10;78.32;95742.69;5063060;28;20227;-84
2022/11/06 09:11:00;;;;;;;6.20;5.60;;;;;;;10.20;77.97;95745.88;5055836;28;20306;-84
2022/11/06 09:13:27;;;;;;;5.63;5.13;;;;;;;10.39;76.62;95738.50;5068434;28;20288;-83
2022/11/06 09:15:55;;;;;;;6.10;5.50;;;;;;;10.30;76.25;95741.31;5070219;28;20856;-84
2022/11/06 09:18:21;;;;;;;5.93;5.43;;;;;;;9.98;77.74;95727.66;5068463;28;20814;-86
2022/11/06 09:20:48;;;;;;;5.97;5.37;;;;;;;10.04;77.72;95724.38;5060282;28;20927;-84
2022/11/06 09:23:14;;;;;;;5.50;5.00;;;;;;;9.89;79.14;95715.78;5059929;28;20568;-83
2022/11/06 09:25:41;;;;;;;5.90;5.33;;;;;;;10.02;79.03;95715.22;5056534;28;20705;-84
2022/11/06 09:28:07;;;;;;;5.50;5.00;;;;;;;10.20;78.75;95715.78;5071544;28;20212;-83
2022/11/06 09:30:34;;;;;;;4.87;4.47;;;;;;;10.36;77.72;95702.84;5059986;28;20560;-84
2022/11/06 09:33:02;;;;;;;5.90;5.40;;;;;;;10.39;77.93;95699.13;5061621;28;20208;-84
2022/11/06 09:35:31;;;;;;;4.80;4.40;;;;;;;10.31;77.09;95694.00;5073852;28;20209;-83
2022/11/06 09:38:02;;;;;;;5.27;4.77;;;;;;;10.20;77.70;95687.47;5075565;28;20280;-83
2022/11/06 09:40:32;;;;;;;4.90;4.40;;;;;;;10.23;78.05;95683.75;5070827;28;20283;-84
2022/11/06 09:43:08;;;;;;;4.90;4.40;;;;;;;10.41;78.26;95673.19;5064171;28;20212;-85
2022/11/06 09:45:39;;;;;;;5.63;5.13;;;;;;;10.45;76.81;95674.44;5074389;28;20219;-83
2022/11/06 09:48:17;;;;;;;5.50;5.00;;;;;;;10.62;77.01;95676.69;5068086;28;20362;-85
2022/11/06 09:50:49;;;;;;;5.63;5.13;;;;;;;10.69;76.72;95674.25;5060467;28;20232;-84
2022/11/06 09:53:21;;;;;;;5.90;5.37;;;;;;;10.82;77.84;95668.47;5066376;28;20190;-84
2022/11/06 09:55:49;;;;;;;5.33;4.83;;;;;;;11.10;77.08;95664.34;5064440;28;20221;-83
2022/11/06 09:58:20;;;;;;;5.43;4.93;;;;;;;11.33;75.61;95657.31;5071944;28;20200;-84
2022/11/06 10:00:50;;;;;;;5.37;4.87;;;;;;;11.52;74.76;95648.22;5060669;28;20216;-83
2022/11/06 10:03:22;;;;;;;5.20;4.80;;;;;;;11.67;73.70;95655.94;5060508;28;20212;-83
2022/11/06 10:05:53;;;;;;;4.30;3.90;;;;;;;11.67;72.63;95655.94;5060266;28;20220;-83
2022/11/06 10:08:22;;;;;;;4.63;4.23;;;;;;;11.59;72.56;95656.03;5061115;28;20197;-84
2022/11/06 10:10:59;;;;;;;5.00;4.50;;;;;;;11.38;72.00;95639.53;5073721;28;20221;-83
2022/11/06 10:13:41;;;;;;;6.20;4.80;;;;;;;11.48;71.80;95625.56;5072612;28;20220;-83
2022/11/06 10:16:15;;;;;;;5.73;4.57;;;;;;;11.31;70.19;95632.69;5067328;28;20709;-83
2022/11/06 10:18:52;;;;;;;5.10;4.10;;;;;;;11.33;72.19;95618.66;5068899;28;20204;-84
2022/11/06 10:21:24;;;;;;;4.50;4.10;;;;;;;11.25;70.83;95616.16;5069703;28;20224;-84
2022/11/06 10:23:56;;;;;;;4.57;4.17;;;;;;;11.23;71.61;95607.81;5066133;28;20197;-84
2022/11/06 10:26:33;;;;;;;4.70;4.20;;;;;;;11.21;71.66;95598.66;5072461;28;20241;-85
2022/11/06 10:29:30;;;;;;;4.77;3.57;;;;;;;11.48;74.52;95592.84;5071611;28;20185;-87
2022/11/06 10:32:11;;;;;;;4.43;4.03;;;;;;;11.80;72.70;95583.88;5069636;28;20611;-87
2022/11/06 10:34:41;;;;;;;4.60;4.20;;;;;;;11.77;70.56;95587.63;5076159;28;20212;-82
2022/11/06 10:37:15;;;;;;;4.37;3.97;;;;;;;11.66;70.33;95592.44;5063970;28;20193;-82
2022/11/06 10:39:45;;;;;;;4.40;4.10;;;;;;;11.59;70.37;95583.81;5059804;28;20624;-84
2022/11/06 10:42:16;;;;;;;4.93;4.53;;;;;;;11.44;69.97;95576.13;5061648;28;20205;-81
2022/11/06 10:44:49;;;;;;;4.97;4.47;;;;;;;11.36;70.93;95568.50;5063351;28;20220;-84
2022/11/06 10:47:19;;;;;;;4.40;4.00;;;;;;;11.41;72.01;95569.56;5063692;28;20204;-85
2022/11/06 10:49:51;;;;;;;4.40;4.00;;;;;;;11.35;71.55;95559.19;5065457;28;20657;-83
2022/11/06 10:52:36;;;;;;;4.47;4.13;;;;;;;11.46;71.31;95552.75;5069546;28;20212;-83
2022/11/06 10:55:47;;;;;;;4.13;3.83;;;;;;;11.45;71.53;95546.00;5060078;28;20229;-84
2022/11/06 10:58:17;;;;;;;4.00;3.70;;;;;;;11.58;70.48;95539.19;5066534;28;20198;-85
2022/11/06 11:00:43;;;;;;;3.87;3.57;;;;;;;11.66;69.92;95536.50;5062390;28;20224;-84
2022/11/06 11:03:19;;;;;;;4.40;4.00;;;;;;;11.64;69.91;95530.72;5060180;28;20194;-84
2022/11/06 11:05:47;;;;;;;4.30;3.90;;;;;;;11.69;69.89;95527.59;5059415;28;20209;-84
2022/11/06 11:08:32;;;;;;;4.80;4.00;;;;;;;11.64;69.96;95522.97;5065313;28;20205;-84
2022/11/06 11:11:01;;;;;;;4.03;3.67;;;;;;;11.65;70.49;95505.72;5057848;28;20189;-83
2022/11/06 11:13:28;;;;;;;4.17;3.87;;;;;;;11.70;70.36;95493.88;5059240;28;20197;-85
2022/11/06 11:15:55;;;;;;;4.20;3.80;;;;;;;11.73;70.55;95487.56;5069388;28;20212;-83
2022/11/06 11:18:29;;;;;;;4.50;4.10;;;;;;;11.73;69.57;95493.53;5071153;28;20196;-83
2022/11/06 11:21:12;;;;;;;4.30;3.90;;;;;;;11.73;69.80;95482.41;5071790;28;20213;-83
2022/11/06 11:23:39;;;;;;;3.90;3.60;;;;;;;11.90;69.16;95477.81;5060705;28;20193;-84
2022/11/06 11:26:21;;;;;;;3.93;3.63;;;;;;;11.90;68.37;95476.03;5059871;28;20209;-83
2022/11/06 11:28:53;;;;;;;4.17;3.87;;;;;;;11.95;70.23;95470.28;5057919;28;20760;-85
2022/11/06 11:31:27;;;;;;;4.40;4.00;;;;;;;12.04;68.97;95469.16;5058601;28;20189;-82
2022/11/06 11:33:57;;;;;;;4.47;3.90;;;;;;;12.13;68.32;95467.22;5061347;28;20330;-83
2022/11/06 11:36:25;;;;;;;3.43;3.13;;;;;;;12.17;65.37;95471.81;5070004;28;20300;-83
2022/11/06 11:38:52;;;;;;;2.93;2.73;;;;;;;12.10;63.01;95465.84;5067921;28;20688;-83
2022/11/06 11:41:29;;;;;;;3.10;2.80;;;;;;;11.95;63.14;95468.50;5070250;28;20219;-82
2022/11/06 11:43:57;;;;;;;2.60;2.40;;;;;;;11.91;62.87;95464.72;5061210;28;20291;-83
2022/11/06 11:46:26;;;;;;;3.50;3.20;;;;;;;12.04;63.69;95462.22;5063219;28;20250;-83
2022/11/06 11:48:55;;;;;;;3.20;2.90;;;;;;;12.15;63.45;95458.31;5066304;28;20197;-84
2022/11/06 11:51:29;;;;;;;3.00;2.80;;;;;;;12.01;61.19;95447.13;5065095;28;20209;-84
2022/11/06 11:53:59;;;;;;;3.23;2.93;;;;;;;11.77;62.01;95448.31;5056040;28;20200;-82
2022/11/06 11:56:28;;;;;;;4.13;2.70;;;;;;;11.78;62.07;95446.53;5057811;28;20218;-83
2022/11/06 11:59:01;;;;;;;2.53;2.33;;;;;;;11.98;62.61;95439.75;5065640;28;20220;-83
2022/11/06 12:01:37;;;;;;;2.40;2.20;;;;;;;12.07;60.19;95430.09;5059607;28;20209;-84